sensor_id;sensor_type;location;lat;lon;timestamp;P1;durP1;ratioP1;P2;durP2;ratioP2
20896;SDS011;10608;42.600;23.398;2023-05-29T00:01:21;94.30;;;90.10;;
20896;SDS011;10608;42.600;23.398;2023-05-29T00:03:49;90.73;;;86.67;;
20896;SDS011;10608;42.600;23.398;2023-05-29T00:06:14;81.97;;;78.37;;
20896;SDS011;10608;42.600;23.398;2023-05-29T00:08:40;85.80;;;82.10;;
20896;SDS011;10608;42.600;23.398;2023-05-29T00:11:05;79.07;;;75.70;;
20896;SDS011;10608;42.600;23.398;2023-05-29T00:13:31;71.23;;;68.17;;
20896;SDS011;10608;42.600;23.398;2023-05-29T00:15:56;77.23;;;73.87;;
20896;SDS011;10608;42.600;23.398;2023-05-29T00:18:21;69.70;;;66.77;;
20896;SDS011;10608;42.600;23.398;2023-05-29T00:20:47;68.93;;;65.90;;
20896;SDS011;10608;42.600;23.398;2023-05-29T00:23:13;94.00;;;89.83;;
20896;SDS011;10608;42.600;23.398;2023-05-29T00:25:38;137.93;;;132.07;;
20896;SDS011;10608;42.600;23.398;2023-05-29T00:28:05;147.43;;;140.80;;
20896;SDS011;10608;42.600;23.398;2023-05-29T00:30:32;133.30;;;127.43;;
20896;SDS011;10608;42.600;23.398;2023-05-29T00:32:57;131.10;;;125.00;;
20896;SDS011;10608;42.600;23.398;2023-05-29T00:35:23;168.73;;;160.10;;
20896;SDS011;10608;42.600;23.398;2023-05-29T00:37:49;217.37;;;205.57;;
20896;SDS011;10608;42.600;23.398;2023-05-29T00:40:14;245.80;;;233.23;;
20896;SDS011;10608;42.600;23.398;2023-05-29T00:42:40;230.73;;;219.13;;
20896;SDS011;10608;42.600;23.398;2023-05-29T00:45:05;187.53;;;178.47;;
20896;SDS011;10608;42.600;23.398;2023-05-29T00:47:32;146.40;;;139.67;;
20896;SDS011;10608;42.600;23.398;2023-05-29T00:49:57;122.80;;;117.23;;
20896;SDS011;10608;42.600;23.398;2023-05-29T00:52:23;117.60;;;112.23;;
20896;SDS011;10608;42.600;23.398;2023-05-29T00:54:51;133.40;;;127.33;;
20896;SDS011;10608;42.600;23.398;2023-05-29T00:57:17;130.93;;;124.83;;
20896;SDS011;10608;42.600;23.398;2023-05-29T00:59:43;142.43;;;135.73;;
20896;SDS011;10608;42.600;23.398;2023-05-29T01:02:10;138.60;;;132.00;;
20896;SDS011;10608;42.600;23.398;2023-05-29T01:04:36;129.97;;;123.90;;
20896;SDS011;10608;42.600;23.398;2023-05-29T01:07:03;123.40;;;117.60;;
20896;SDS011;10608;42.600;23.398;2023-05-29T01:09:29;131.70;;;125.50;;
20896;SDS011;10608;42.600;23.398;2023-05-29T01:19:58;109.03;;;104.33;;
20896;SDS011;10608;42.600;23.398;2023-05-29T01:25:29;95.17;;;91.17;;
20896;SDS011;10608;42.600;23.398;2023-05-29T01:27:58;96.03;;;91.97;;
20896;SDS011;10608;42.600;23.398;2023-05-29T01:30:29;94.27;;;90.20;;
20896;SDS011;10608;42.600;23.398;2023-05-29T01:32:57;94.73;;;90.67;;
20896;SDS011;10608;42.600;23.398;2023-05-29T01:35:23;103.43;;;99.03;;
20896;SDS011;10608;42.600;23.398;2023-05-29T01:37:49;107.93;;;103.40;;
20896;SDS011;10608;42.600;23.398;2023-05-29T01:40:14;101.43;;;96.90;;
20896;SDS011;10608;42.600;23.398;2023-05-29T01:42:40;112.67;;;107.90;;
20896;SDS011;10608;42.600;23.398;2023-05-29T01:45:05;114.97;;;110.13;;
20896;SDS011;10608;42.600;23.398;2023-05-29T01:47:31;118.70;;;113.70;;
20896;SDS011;10608;42.600;23.398;2023-05-29T01:49:58;122.80;;;117.63;;
20896;SDS011;10608;42.600;23.398;2023-05-29T01:52:24;133.73;;;128.03;;
20896;SDS011;10608;42.600;23.398;2023-05-29T01:54:50;114.93;;;110.13;;
20896;SDS011;10608;42.600;23.398;2023-05-29T01:57:15;120.47;;;115.47;;
20896;SDS011;10608;42.600;23.398;2023-05-29T01:59:41;117.20;;;112.27;;
20896;SDS011;10608;42.600;23.398;2023-05-29T02:02:07;108.73;;;104.20;;
20896;SDS011;10608;42.600;23.398;2023-05-29T02:04:33;124.33;;;119.03;;
20896;SDS011;10608;42.600;23.398;2023-05-29T02:06:58;128.87;;;123.23;;
20896;SDS011;10608;42.600;23.398;2023-05-29T02:09:24;140.33;;;133.47;;
20896;SDS011;10608;42.600;23.398;2023-05-29T02:11:50;145.73;;;139.40;;
20896;SDS011;10608;42.600;23.398;2023-05-29T02:14:15;145.87;;;139.57;;
20896;SDS011;10608;42.600;23.398;2023-05-29T02:16:41;133.43;;;127.67;;
20896;SDS011;10608;42.600;23.398;2023-05-29T02:19:08;124.23;;;118.80;;
20896;SDS011;10608;42.600;23.398;2023-05-29T02:21:37;113.67;;;108.73;;
20896;SDS011;10608;42.600;23.398;2023-05-29T02:24:05;119.00;;;113.73;;
20896;SDS011;10608;42.600;23.398;2023-05-29T02:26:31;97.90;;;93.60;;
20896;SDS011;10608;42.600;23.398;2023-05-29T02:28:56;92.60;;;88.53;;
20896;SDS011;10608;42.600;23.398;2023-05-29T02:31:22;96.97;;;92.73;;
20896;SDS011;10608;42.600;23.398;2023-05-29T02:33:47;94.90;;;90.77;;
20896;SDS011;10608;42.600;23.398;2023-05-29T02:36:13;96.33;;;92.07;;
20896;SDS011;10608;42.600;23.398;2023-05-29T02:38:38;101.73;;;97.23;;
20896;SDS011;10608;42.600;23.398;2023-05-29T02:41:04;109.83;;;104.87;;
20896;SDS011;10608;42.600;23.398;2023-05-29T02:43:30;101.80;;;97.27;;
20896;SDS011;10608;42.600;23.398;2023-05-29T02:45:56;113.47;;;108.20;;
20896;SDS011;10608;42.600;23.398;2023-05-29T02:48:21;127.93;;;122.20;;
20896;SDS011;10608;42.600;23.398;2023-05-29T02:50:47;134.90;;;128.83;;
20896;SDS011;10608;42.600;23.398;2023-05-29T02:53:12;133.90;;;127.87;;
20896;SDS011;10608;42.600;23.398;2023-05-29T02:55:38;122.77;;;116.73;;
20896;SDS011;10608;42.600;23.398;2023-05-29T02:58:03;123.27;;;117.87;;
20896;SDS011;10608;42.600;23.398;2023-05-29T03:00:29;124.07;;;118.70;;
20896;SDS011;10608;42.600;23.398;2023-05-29T03:02:54;129.37;;;123.37;;
20896;SDS011;10608;42.600;23.398;2023-05-29T03:05:20;170.20;;;162.30;;
20896;SDS011;10608;42.600;23.398;2023-05-29T03:07:45;201.80;;;192.30;;
20896;SDS011;10608;42.600;23.398;2023-05-29T03:10:11;240.53;;;228.83;;
20896;SDS011;10608;42.600;23.398;2023-05-29T03:12:37;245.70;;;234.20;;
20896;SDS011;10608;42.600;23.398;2023-05-29T03:15:02;241.13;;;229.90;;
20896;SDS011;10608;42.600;23.398;2023-05-29T03:17:28;213.57;;;203.93;;
20896;SDS011;10608;42.600;23.398;2023-05-29T03:19:54;209.27;;;199.83;;
20896;SDS011;10608;42.600;23.398;2023-05-29T03:22:19;232.00;;;221.10;;
20896;SDS011;10608;42.600;23.398;2023-05-29T03:24:45;229.60;;;218.17;;
20896;SDS011;10608;42.600;23.398;2023-05-29T03:27:10;218.27;;;207.33;;
20896;SDS011;10608;42.600;23.398;2023-05-29T03:29:36;204.13;;;194.07;;
20896;SDS011;10608;42.600;23.398;2023-05-29T03:32:01;167.03;;;158.93;;
20896;SDS011;10608;42.600;23.398;2023-05-29T03:34:27;177.83;;;169.13;;
20896;SDS011;10608;42.600;23.398;2023-05-29T03:36:53;193.10;;;183.67;;
20896;SDS011;10608;42.600;23.398;2023-05-29T03:39:18;172.00;;;164.47;;
20896;SDS011;10608;42.600;23.398;2023-05-29T03:41:44;175.43;;;167.97;;
20896;SDS011;10608;42.600;23.398;2023-05-29T03:44:09;149.87;;;142.70;;
20896;SDS011;10608;42.600;23.398;2023-05-29T03:46:35;130.03;;;124.10;;
20896;SDS011;10608;42.600;23.398;2023-05-29T03:49:00;112.43;;;107.60;;
20896;SDS011;10608;42.600;23.398;2023-05-29T03:51:26;115.67;;;110.63;;
20896;SDS011;10608;42.600;23.398;2023-05-29T03:53:51;109.83;;;105.03;;
20896;SDS011;10608;42.600;23.398;2023-05-29T03:56:16;104.53;;;100.03;;
20896;SDS011;10608;42.600;23.398;2023-05-29T03:58:42;90.33;;;86.53;;
20896;SDS011;10608;42.600;23.398;2023-05-29T04:01:07;99.57;;;95.40;;
20896;SDS011;10608;42.600;23.398;2023-05-29T04:03:34;105.70;;;101.20;;
20896;SDS011;10608;42.600;23.398;2023-05-29T04:06:00;139.47;;;133.27;;
20896;SDS011;10608;42.600;23.398;2023-05-29T04:08:25;128.50;;;122.97;;
20896;SDS011;10608;42.600;23.398;2023-05-29T04:10:51;136.43;;;130.30;;
20896;SDS011;10608;42.600;23.398;2023-05-29T04:13:19;136.30;;;130.13;;
20896;SDS011;10608;42.600;23.398;2023-05-29T04:15:45;161.43;;;154.00;;
20896;SDS011;10608;42.600;23.398;2023-05-29T04:18:10;202.30;;;193.33;;
20896;SDS011;10608;42.600;23.398;2023-05-29T04:20:36;92.80;;;88.70;;
20896;SDS011;10608;42.600;23.398;2023-05-29T04:23:01;132.03;;;126.30;;
20896;SDS011;10608;42.600;23.398;2023-05-29T04:25:27;78.77;;;75.33;;
20896;SDS011;10608;42.600;23.398;2023-05-29T04:27:52;82.07;;;78.43;;
20896;SDS011;10608;42.600;23.398;2023-05-29T04:30:17;49.93;;;47.70;;
20896;SDS011;10608;42.600;23.398;2023-05-29T04:32:43;38.30;;;36.63;;
20896;SDS011;10608;42.600;23.398;2023-05-29T04:35:09;46.40;;;44.43;;
20896;SDS011;10608;42.600;23.398;2023-05-29T04:37:35;58.97;;;56.50;;
20896;SDS011;10608;42.600;23.398;2023-05-29T04:40:04;38.33;;;36.73;;
20896;SDS011;10608;42.600;23.398;2023-05-29T04:42:36;44.20;;;42.23;;
20896;SDS011;10608;42.600;23.398;2023-05-29T04:45:03;58.03;;;55.63;;
20896;SDS011;10608;42.600;23.398;2023-05-29T04:47:30;40.43;;;38.80;;
20896;SDS011;10608;42.600;23.398;2023-05-29T04:49:57;54.67;;;52.33;;
20896;SDS011;10608;42.600;23.398;2023-05-29T05:07:42;95.47;;;91.33;;
20896;SDS011;10608;42.600;23.398;2023-05-29T05:10:08;50.83;;;48.63;;
20896;SDS011;10608;42.600;23.398;2023-05-29T05:12:33;52.27;;;50.07;;
20896;SDS011;10608;42.600;23.398;2023-05-29T05:14:59;42.07;;;40.27;;
20896;SDS011;10608;42.600;23.398;2023-05-29T05:17:24;77.73;;;74.23;;
20896;SDS011;10608;42.600;23.398;2023-05-29T05:19:49;81.17;;;77.67;;
20896;SDS011;10608;42.600;23.398;2023-05-29T05:22:15;65.83;;;62.93;;
20896;SDS011;10608;42.600;23.398;2023-05-29T05:24:41;64.33;;;61.47;;
20896;SDS011;10608;42.600;23.398;2023-05-29T05:27:06;57.60;;;55.10;;
20896;SDS011;10608;42.600;23.398;2023-05-29T05:29:31;85.47;;;81.23;;
20896;SDS011;10608;42.600;23.398;2023-05-29T05:31:57;62.07;;;59.27;;
20896;SDS011;10608;42.600;23.398;2023-05-29T05:34:22;76.40;;;73.10;;
20896;SDS011;10608;42.600;23.398;2023-05-29T05:36:47;90.90;;;86.43;;
20896;SDS011;10608;42.600;23.398;2023-05-29T05:39:14;28.60;;;27.27;;
20896;SDS011;10608;42.600;23.398;2023-05-29T05:41:39;20.43;;;19.63;;
20896;SDS011;10608;42.600;23.398;2023-05-29T05:44:04;20.87;;;20.00;;
20896;SDS011;10608;42.600;23.398;2023-05-29T05:46:30;34.07;;;32.63;;
20896;SDS011;10608;42.600;23.398;2023-05-29T05:48:56;38.07;;;36.53;;
20896;SDS011;10608;42.600;23.398;2023-05-29T05:51:22;53.27;;;51.03;;
20896;SDS011;10608;42.600;23.398;2023-05-29T05:53:47;55.67;;;53.27;;
20896;SDS011;10608;42.600;23.398;2023-05-29T05:56:13;45.27;;;43.30;;
20896;SDS011;10608;42.600;23.398;2023-05-29T05:58:38;43.13;;;41.23;;
20896;SDS011;10608;42.600;23.398;2023-05-29T06:01:03;43.57;;;41.77;;
20896;SDS011;10608;42.600;23.398;2023-05-29T06:03:28;48.63;;;46.63;;
20896;SDS011;10608;42.600;23.398;2023-05-29T06:05:54;52.97;;;50.57;;
20896;SDS011;10608;42.600;23.398;2023-05-29T06:08:20;82.80;;;79.37;;
20896;SDS011;10608;42.600;23.398;2023-05-29T06:10:45;60.40;;;57.93;;
20896;SDS011;10608;42.600;23.398;2023-05-29T06:13:11;55.67;;;53.37;;
20896;SDS011;10608;42.600;23.398;2023-05-29T06:15:36;48.03;;;46.00;;
20896;SDS011;10608;42.600;23.398;2023-05-29T06:18:02;30.33;;;28.97;;
20896;SDS011;10608;42.600;23.398;2023-05-29T06:20:27;34.67;;;33.00;;
20896;SDS011;10608;42.600;23.398;2023-05-29T06:22:53;44.53;;;42.67;;
20896;SDS011;10608;42.600;23.398;2023-05-29T06:25:18;43.17;;;41.40;;
20896;SDS011;10608;42.600;23.398;2023-05-29T06:27:44;70.70;;;67.80;;
20896;SDS011;10608;42.600;23.398;2023-05-29T06:30:10;64.33;;;61.70;;
20896;SDS011;10608;42.600;23.398;2023-05-29T06:32:35;44.97;;;42.80;;
20896;SDS011;10608;42.600;23.398;2023-05-29T06:35:00;48.43;;;46.37;;
20896;SDS011;10608;42.600;23.398;2023-05-29T06:37:26;46.97;;;44.77;;
20896;SDS011;10608;42.600;23.398;2023-05-29T06:39:51;51.73;;;49.47;;
20896;SDS011;10608;42.600;23.398;2023-05-29T06:42:16;31.73;;;30.23;;
20896;SDS011;10608;42.600;23.398;2023-05-29T06:44:41;44.80;;;42.87;;
20896;SDS011;10608;42.600;23.398;2023-05-29T06:47:07;48.50;;;46.43;;
20896;SDS011;10608;42.600;23.398;2023-05-29T06:49:32;29.50;;;28.27;;
20896;SDS011;10608;42.600;23.398;2023-05-29T06:51:57;36.37;;;34.77;;
20896;SDS011;10608;42.600;23.398;2023-05-29T06:54:23;38.43;;;36.80;;
20896;SDS011;10608;42.600;23.398;2023-05-29T06:56:48;23.13;;;22.13;;
20896;SDS011;10608;42.600;23.398;2023-05-29T06:59:13;22.70;;;21.60;;
20896;SDS011;10608;42.600;23.398;2023-05-29T07:01:38;21.37;;;20.33;;
20896;SDS011;10608;42.600;23.398;2023-05-29T07:04:03;24.17;;;22.97;;
20896;SDS011;10608;42.600;23.398;2023-05-29T07:06:29;22.77;;;21.67;;
20896;SDS011;10608;42.600;23.398;2023-05-29T07:08:54;15.23;;;14.43;;
20896;SDS011;10608;42.600;23.398;2023-05-29T07:11:19;18.03;;;17.23;;
20896;SDS011;10608;42.600;23.398;2023-05-29T07:13:45;15.03;;;14.43;;
20896;SDS011;10608;42.600;23.398;2023-05-29T07:16:11;22.27;;;21.33;;
20896;SDS011;10608;42.600;23.398;2023-05-29T07:18:36;19.93;;;19.07;;
20896;SDS011;10608;42.600;23.398;2023-05-29T07:21:01;28.23;;;27.07;;
20896;SDS011;10608;42.600;23.398;2023-05-29T07:23:26;36.57;;;35.03;;
20896;SDS011;10608;42.600;23.398;2023-05-29T07:25:52;28.73;;;27.57;;
20896;SDS011;10608;42.600;23.398;2023-05-29T07:28:17;30.23;;;28.37;;
20896;SDS011;10608;42.600;23.398;2023-05-29T07:30:42;33.70;;;32.20;;
20896;SDS011;10608;42.600;23.398;2023-05-29T07:33:07;33.97;;;32.57;;
20896;SDS011;10608;42.600;23.398;2023-05-29T07:35:33;51.10;;;48.93;;
20896;SDS011;10608;42.600;23.398;2023-05-29T07:37:58;16.23;;;15.53;;
20896;SDS011;10608;42.600;23.398;2023-05-29T07:40:24;49.57;;;47.50;;
20896;SDS011;10608;42.600;23.398;2023-05-29T07:42:49;53.23;;;51.03;;
20896;SDS011;10608;42.600;23.398;2023-05-29T07:45:14;18.70;;;17.90;;
20896;SDS011;10608;42.600;23.398;2023-05-29T07:47:40;11.90;;;11.40;;
20896;SDS011;10608;42.600;23.398;2023-05-29T07:50:05;28.53;;;27.40;;
20896;SDS011;10608;42.600;23.398;2023-05-29T07:52:31;17.60;;;16.87;;
20896;SDS011;10608;42.600;23.398;2023-05-29T07:54:56;148.70;;;142.73;;
20896;SDS011;10608;42.600;23.398;2023-05-29T07:57:22;54.13;;;51.93;;
20896;SDS011;10608;42.600;23.398;2023-05-29T07:59:47;20.97;;;19.87;;
20896;SDS011;10608;42.600;23.398;2023-05-29T08:02:14;28.93;;;27.50;;
20896;SDS011;10608;42.600;23.398;2023-05-29T08:04:40;52.93;;;50.73;;
20896;SDS011;10608;42.600;23.398;2023-05-29T08:07:05;27.10;;;25.70;;
20896;SDS011;10608;42.600;23.398;2023-05-29T08:09:31;25.57;;;24.27;;
20896;SDS011;10608;42.600;23.398;2023-05-29T08:11:56;27.33;;;26.20;;
20896;SDS011;10608;42.600;23.398;2023-05-29T08:14:22;17.10;;;16.37;;
20896;SDS011;10608;42.600;23.398;2023-05-29T08:16:47;18.77;;;17.73;;
20896;SDS011;10608;42.600;23.398;2023-05-29T08:19:12;22.57;;;21.67;;
20896;SDS011;10608;42.600;23.398;2023-05-29T08:21:38;33.13;;;31.70;;
20896;SDS011;10608;42.600;23.398;2023-05-29T08:24:03;34.47;;;33.00;;
20896;SDS011;10608;42.600;23.398;2023-05-29T08:26:31;28.17;;;27.00;;
20896;SDS011;10608;42.600;23.398;2023-05-29T08:28:57;29.90;;;28.70;;
20896;SDS011;10608;42.600;23.398;2023-05-29T08:31:22;18.90;;;18.03;;
20896;SDS011;10608;42.600;23.398;2023-05-29T08:33:50;25.57;;;24.50;;
20896;SDS011;10608;42.600;23.398;2023-05-29T08:36:15;22.77;;;21.77;;
20896;SDS011;10608;42.600;23.398;2023-05-29T08:38:41;33.97;;;32.57;;
20896;SDS011;10608;42.600;23.398;2023-05-29T08:41:06;26.87;;;25.47;;
20896;SDS011;10608;42.600;23.398;2023-05-29T08:43:32;22.97;;;22.07;;
20896;SDS011;10608;42.600;23.398;2023-05-29T08:46:01;22.17;;;21.27;;
20896;SDS011;10608;42.600;23.398;2023-05-29T08:48:27;34.67;;;33.20;;
20896;SDS011;10608;42.600;23.398;2023-05-29T08:50:54;33.00;;;31.60;;
20896;SDS011;10608;42.600;23.398;2023-05-29T08:53:20;19.23;;;17.93;;
20896;SDS011;10608;42.600;23.398;2023-05-29T08:55:46;16.10;;;15.10;;
20896;SDS011;10608;42.600;23.398;2023-05-29T08:58:13;25.53;;;24.53;;
20896;SDS011;10608;42.600;23.398;2023-05-29T09:00:38;42.37;;;40.63;;
20896;SDS011;10608;42.600;23.398;2023-05-29T09:03:05;17.20;;;16.50;;
20896;SDS011;10608;42.600;23.398;2023-05-29T09:05:31;26.73;;;25.63;;
20896;SDS011;10608;42.600;23.398;2023-05-29T09:07:57;23.10;;;22.17;;
20896;SDS011;10608;42.600;23.398;2023-05-29T09:10:22;65.77;;;63.00;;
20896;SDS011;10608;42.600;23.398;2023-05-29T09:12:48;28.90;;;27.70;;
20896;SDS011;10608;42.600;23.398;2023-05-29T09:17:43;35.77;;;34.30;;
20896;SDS011;10608;42.600;23.398;2023-05-29T09:20:14;22.67;;;21.27;;
20896;SDS011;10608;42.600;23.398;2023-05-29T09:22:42;33.73;;;32.23;;
20896;SDS011;10608;42.600;23.398;2023-05-29T09:25:07;20.90;;;20.00;;
20896;SDS011;10608;42.600;23.398;2023-05-29T09:27:38;23.87;;;22.83;;
20896;SDS011;10608;42.600;23.398;2023-05-29T09:30:03;15.67;;;15.03;;
20896;SDS011;10608;42.600;23.398;2023-05-29T09:32:28;76.53;;;73.37;;
20896;SDS011;10608;42.600;23.398;2023-05-29T09:34:59;86.03;;;82.53;;
20896;SDS011;10608;42.600;23.398;2023-05-29T09:37:24;35.10;;;33.50;;
20896;SDS011;10608;42.600;23.398;2023-05-29T09:39:50;34.23;;;32.73;;
20896;SDS011;10608;42.600;23.398;2023-05-29T09:42:18;34.60;;;33.17;;
20896;SDS011;10608;42.600;23.398;2023-05-29T09:44:49;30.67;;;29.37;;
20896;SDS011;10608;42.600;23.398;2023-05-29T09:47:18;26.43;;;25.33;;
20896;SDS011;10608;42.600;23.398;2023-05-29T09:49:44;25.10;;;24.07;;
20896;SDS011;10608;42.600;23.398;2023-05-29T09:52:13;38.67;;;37.07;;
20896;SDS011;10608;42.600;23.398;2023-05-29T09:54:42;34.40;;;32.80;;
20896;SDS011;10608;42.600;23.398;2023-05-29T09:57:10;40.30;;;38.57;;
20896;SDS011;10608;42.600;23.398;2023-05-29T09:59:35;40.17;;;38.50;;
20896;SDS011;10608;42.600;23.398;2023-05-29T10:02:02;32.63;;;31.30;;
20896;SDS011;10608;42.600;23.398;2023-05-29T10:04:29;26.50;;;25.30;;
20896;SDS011;10608;42.600;23.398;2023-05-29T10:06:54;42.33;;;40.53;;
20896;SDS011;10608;42.600;23.398;2023-05-29T10:09:21;26.53;;;25.43;;
20896;SDS011;10608;42.600;23.398;2023-05-29T10:11:48;26.13;;;24.60;;
20896;SDS011;10608;42.600;23.398;2023-05-29T10:14:17;23.50;;;22.53;;
20896;SDS011;10608;42.600;23.398;2023-05-29T10:16:43;18.00;;;17.23;;
20896;SDS011;10608;42.600;23.398;2023-05-29T10:19:11;19.93;;;19.03;;
20896;SDS011;10608;42.600;23.398;2023-05-29T10:21:37;32.83;;;31.47;;
20896;SDS011;10608;42.600;23.398;2023-05-29T10:24:05;37.57;;;35.50;;
20896;SDS011;10608;42.600;23.398;2023-05-29T10:26:31;27.20;;;26.10;;
20896;SDS011;10608;42.600;23.398;2023-05-29T10:31:28;24.83;;;23.73;;
20896;SDS011;10608;42.600;23.398;2023-05-29T10:36:42;28.57;;;27.37;;
20896;SDS011;10608;42.600;23.398;2023-05-29T10:39:09;17.47;;;16.73;;
20896;SDS011;10608;42.600;23.398;2023-05-29T10:41:34;42.23;;;40.47;;
20896;SDS011;10608;42.600;23.398;2023-05-29T10:44:04;61.83;;;59.27;;
20896;SDS011;10608;42.600;23.398;2023-05-29T10:49:18;68.07;;;65.30;;
20896;SDS011;10608;42.600;23.398;2023-05-29T10:51:43;64.63;;;61.93;;
20896;SDS011;10608;42.600;23.398;2023-05-29T10:54:09;53.40;;;51.17;;
20896;SDS011;10608;42.600;23.398;2023-05-29T10:56:35;49.67;;;47.57;;
20896;SDS011;10608;42.600;23.398;2023-05-29T10:59:00;71.33;;;68.40;;
20896;SDS011;10608;42.600;23.398;2023-05-29T11:01:27;53.50;;;51.30;;
20896;SDS011;10608;42.600;23.398;2023-05-29T11:03:53;56.57;;;54.27;;
20896;SDS011;10608;42.600;23.398;2023-05-29T11:06:34;65.20;;;62.50;;
20896;SDS011;10608;42.600;23.398;2023-05-29T11:09:00;33.03;;;31.73;;
20896;SDS011;10608;42.600;23.398;2023-05-29T11:13:53;13.67;;;13.07;;
20896;SDS011;10608;42.600;23.398;2023-05-29T11:18:50;47.50;;;45.53;;
20896;SDS011;10608;42.600;23.398;2023-05-29T11:23:59;20.33;;;19.43;;
20896;SDS011;10608;42.600;23.398;2023-05-29T11:26:28;13.07;;;12.47;;
20896;SDS011;10608;42.600;23.398;2023-05-29T11:28:53;18.90;;;18.13;;
20896;SDS011;10608;42.600;23.398;2023-05-29T11:31:19;18.50;;;17.60;;
20896;SDS011;10608;42.600;23.398;2023-05-29T11:33:47;22.50;;;21.50;;
20896;SDS011;10608;42.600;23.398;2023-05-29T11:36:12;18.20;;;17.43;;
20896;SDS011;10608;42.600;23.398;2023-05-29T11:38:39;20.53;;;19.73;;
20896;SDS011;10608;42.600;23.398;2023-05-29T11:41:04;60.57;;;57.93;;
20896;SDS011;10608;42.600;23.398;2023-05-29T11:43:29;20.93;;;20.03;;
20896;SDS011;10608;42.600;23.398;2023-05-29T11:45:54;22.17;;;21.27;;
20896;SDS011;10608;42.600;23.398;2023-05-29T11:48:20;28.33;;;27.10;;
20896;SDS011;10608;42.600;23.398;2023-05-29T11:50:46;25.43;;;24.33;;
20896;SDS011;10608;42.600;23.398;2023-05-29T11:53:12;40.23;;;38.57;;
20896;SDS011;10608;42.600;23.398;2023-05-29T11:55:37;41.07;;;39.27;;
20896;SDS011;10608;42.600;23.398;2023-05-29T11:58:03;67.70;;;64.67;;
20896;SDS011;10608;42.600;23.398;2023-05-29T12:00:35;110.60;;;106.07;;
20896;SDS011;10608;42.600;23.398;2023-05-29T12:03:01;28.43;;;27.00;;
20896;SDS011;10608;42.600;23.398;2023-05-29T12:05:28;32.03;;;30.67;;
20896;SDS011;10608;42.600;23.398;2023-05-29T12:07:54;64.50;;;61.80;;
20896;SDS011;10608;42.600;23.398;2023-05-29T12:10:23;47.50;;;45.53;;
20896;SDS011;10608;42.600;23.398;2023-05-29T12:12:52;79.93;;;76.60;;
20896;SDS011;10608;42.600;23.398;2023-05-29T12:15:18;29.97;;;28.70;;
20896;SDS011;10608;42.600;23.398;2023-05-29T12:17:44;44.03;;;42.17;;
20896;SDS011;10608;42.600;23.398;2023-05-29T12:20:09;25.93;;;24.83;;
20896;SDS011;10608;42.600;23.398;2023-05-29T12:22:36;25.30;;;24.23;;
20896;SDS011;10608;42.600;23.398;2023-05-29T12:25:12;36.67;;;35.07;;
20896;SDS011;10608;42.600;23.398;2023-05-29T12:27:41;29.60;;;28.30;;
20896;SDS011;10608;42.600;23.398;2023-05-29T12:30:08;65.03;;;62.37;;
20896;SDS011;10608;42.600;23.398;2023-05-29T12:32:37;117.63;;;112.90;;
20896;SDS011;10608;42.600;23.398;2023-05-29T12:35:21;47.07;;;45.10;;
20896;SDS011;10608;42.600;23.398;2023-05-29T12:37:54;51.57;;;49.43;;
20896;SDS011;10608;42.600;23.398;2023-05-29T12:42:48;25.63;;;24.47;;
20896;SDS011;10608;42.600;23.398;2023-05-29T12:45:14;16.23;;;15.53;;
20896;SDS011;10608;42.600;23.398;2023-05-29T12:47:49;38.73;;;37.17;;
20896;SDS011;10608;42.600;23.398;2023-05-29T12:50:19;57.50;;;54.77;;
20896;SDS011;10608;42.600;23.398;2023-05-29T12:52:44;47.70;;;45.77;;
20896;SDS011;10608;42.600;23.398;2023-05-29T12:55:10;22.93;;;22.03;;
20896;SDS011;10608;42.600;23.398;2023-05-29T12:57:35;17.93;;;17.13;;
20896;SDS011;10608;42.600;23.398;2023-05-29T13:00:00;17.13;;;16.43;;
20896;SDS011;10608;42.600;23.398;2023-05-29T13:02:26;43.67;;;41.77;;
20896;SDS011;10608;42.600;23.398;2023-05-29T13:04:51;43.83;;;41.83;;
20896;SDS011;10608;42.600;23.398;2023-05-29T13:07:16;39.23;;;37.57;;
20896;SDS011;10608;42.600;23.398;2023-05-29T13:09:41;18.17;;;17.43;;
20896;SDS011;10608;42.600;23.398;2023-05-29T13:12:07;30.80;;;29.43;;
20896;SDS011;10608;42.600;23.398;2023-05-29T13:14:32;29.57;;;28.30;;
20896;SDS011;10608;42.600;23.398;2023-05-29T13:16:57;34.13;;;32.70;;
20896;SDS011;10608;42.600;23.398;2023-05-29T13:19:22;21.77;;;20.87;;
20896;SDS011;10608;42.600;23.398;2023-05-29T13:21:47;26.17;;;24.83;;
20896;SDS011;10608;42.600;23.398;2023-05-29T13:24:13;61.60;;;59.07;;
20896;SDS011;10608;42.600;23.398;2023-05-29T13:26:39;48.73;;;46.70;;
20896;SDS011;10608;42.600;23.398;2023-05-29T13:29:04;36.43;;;34.80;;
20896;SDS011;10608;42.600;23.398;2023-05-29T13:31:29;27.60;;;26.40;;
20896;SDS011;10608;42.600;23.398;2023-05-29T13:33:55;29.80;;;28.50;;
20896;SDS011;10608;42.600;23.398;2023-05-29T13:36:20;25.13;;;23.97;;
20896;SDS011;10608;42.600;23.398;2023-05-29T13:38:45;23.23;;;22.23;;
20896;SDS011;10608;42.600;23.398;2023-05-29T13:41:11;27.23;;;26.13;;
20896;SDS011;10608;42.600;23.398;2023-05-29T13:43:36;30.03;;;28.77;;
20896;SDS011;10608;42.600;23.398;2023-05-29T13:46:01;37.63;;;36.03;;
20896;SDS011;10608;42.600;23.398;2023-05-29T13:48:27;31.50;;;30.00;;
20896;SDS011;10608;42.600;23.398;2023-05-29T13:50:52;33.07;;;31.67;;
20896;SDS011;10608;42.600;23.398;2023-05-29T13:53:17;27.73;;;26.50;;
20896;SDS011;10608;42.600;23.398;2023-05-29T13:55:42;34.67;;;33.07;;
20896;SDS011;10608;42.600;23.398;2023-05-29T13:58:08;26.30;;;25.10;;
20896;SDS011;10608;42.600;23.398;2023-05-29T14:00:33;34.40;;;33.00;;
20896;SDS011;10608;42.600;23.398;2023-05-29T14:02:58;39.27;;;37.33;;
20896;SDS011;10608;42.600;23.398;2023-05-29T14:05:23;18.67;;;17.83;;
20896;SDS011;10608;42.600;23.398;2023-05-29T14:07:49;47.80;;;45.73;;
20896;SDS011;10608;42.600;23.398;2023-05-29T14:10:14;37.43;;;35.63;;
20896;SDS011;10608;42.600;23.398;2023-05-29T14:12:39;25.07;;;24.00;;
20896;SDS011;10608;42.600;23.398;2023-05-29T14:15:05;32.00;;;30.60;;
20896;SDS011;10608;42.600;23.398;2023-05-29T14:17:31;41.90;;;40.10;;
20896;SDS011;10608;42.600;23.398;2023-05-29T14:19:56;29.27;;;27.97;;
20896;SDS011;10608;42.600;23.398;2023-05-29T14:22:21;29.57;;;28.30;;
20896;SDS011;10608;42.600;23.398;2023-05-29T14:24:46;17.07;;;16.27;;
20896;SDS011;10608;42.600;23.398;2023-05-29T14:27:12;51.23;;;49.03;;
20896;SDS011;10608;42.600;23.398;2023-05-29T14:29:37;37.33;;;35.73;;
20896;SDS011;10608;42.600;23.398;2023-05-29T14:32:02;49.77;;;47.67;;
20896;SDS011;10608;42.600;23.398;2023-05-29T14:34:27;42.93;;;41.10;;
20896;SDS011;10608;42.600;23.398;2023-05-29T14:36:53;53.40;;;51.10;;
20896;SDS011;10608;42.600;23.398;2023-05-29T14:39:18;31.23;;;29.87;;
20896;SDS011;10608;42.600;23.398;2023-05-29T14:41:43;62.43;;;59.73;;
20896;SDS011;10608;42.600;23.398;2023-05-29T14:44:08;35.83;;;34.30;;